Observations

80.2 °F / 26.8 °C
E at 22 MPH gusting to 28 MPH
93%
78.3°F / 25.7 °C
29.73" (1006 mb)
7 mile(s)
mostly cloudy
2020.11.24 1440 UTC

Observations

Surface


Raw METARs

2020/11/24 14:40
PKWA 241440Z AUTO 08019G24KT 7SM -RA SCT022 SCT039 BKN050 27/26 A2973 RMK AO2 T02680257

Translated METAR

Kwajalein, Bucholz AAF, Kwajalein KMR ATOL Airport, Marshall Islands (PKWA) 08-43N 167-44E 2M
Nov 24, 2020 - 09:40 AM EST / 2020.11.24 1440 UTC
Wind: from the E (080 degrees) at 22 MPH (19 KT) gusting to 28 MPH (24 KT):0
Visibility: 7 mile(s):0
Sky conditions: mostly cloudy
Weather: light rain
Temperature: 80.2 F (26.8 C)
Dew Point: 78.3 F (25.7 C)
Relative Humidity: 93%
Pressure (altimeter): 29.73 in. Hg (1006 hPa)
ob: PKWA 241440Z AUTO 08019G24KT 7SM -RA SCT022 SCT039 BKN050 27/26 A2973 RMK AO2 T02680257
cycle: 14



Upper Air


Latest Skew-T

Skew T Diagram

Latest Data File